createdAt,value
2022-11-03T00:01:42.805Z,9.80
2022-11-03T00:04:14.956Z,9.50
2022-11-03T00:06:43.292Z,9.20
2022-11-03T00:09:12.313Z,9.00
2022-11-03T00:11:40.315Z,8.90
2022-11-03T00:14:09.309Z,8.80
2022-11-03T00:16:36.694Z,8.70
2022-11-03T00:19:03.982Z,8.80
2022-11-03T00:21:30.918Z,9.00
2022-11-03T00:23:57.645Z,9.00
2022-11-03T00:26:29.208Z,9.10
2022-11-03T00:29:00.474Z,9.10
2022-11-03T00:31:32.610Z,9.10
2022-11-03T00:34:00.299Z,9.10
2022-11-03T00:36:32.742Z,9.10
2022-11-03T00:38:59.654Z,9.10
2022-11-03T00:41:27.066Z,9.10
2022-11-03T00:43:54.471Z,9.00
2022-11-03T00:46:22.991Z,9.00
2022-11-03T00:48:50.167Z,8.90
2022-11-03T00:51:22.936Z,8.90
2022-11-03T00:54:00.957Z,8.90
2022-11-03T00:56:39.160Z,9.00
2022-11-03T00:59:07.806Z,8.90
2022-11-03T01:01:43.957Z,8.90
2022-11-03T01:04:31.240Z,8.90
2022-11-03T01:06:59.682Z,8.90
2022-11-03T01:09:26.286Z,8.90
2022-11-03T01:12:00.562Z,8.90
2022-11-03T01:14:49.220Z,8.90
2022-11-03T01:17:27.841Z,9.00
2022-11-03T01:19:55.506Z,9.00
2022-11-03T01:22:23.225Z,8.80
2022-11-03T01:24:51.746Z,8.70
2022-11-03T01:27:20.752Z,8.70
2022-11-03T01:29:48.992Z,8.70
2022-11-03T01:32:15.865Z,8.80
2022-11-03T01:34:42.613Z,8.80
2022-11-03T01:37:09.259Z,8.90
2022-11-03T01:39:35.999Z,8.90
2022-11-03T01:42:02.954Z,8.70
2022-11-03T01:44:50.907Z,8.80
2022-11-03T01:47:27.989Z,8.80
2022-11-03T01:50:03.800Z,8.90
2022-11-03T01:52:37.197Z,8.90
2022-11-03T01:55:10.848Z,8.80
2022-11-03T01:57:50.074Z,8.80
2022-11-03T02:00:16.953Z,8.80
2022-11-03T02:02:44.665Z,8.70
2022-11-03T02:05:15.417Z,8.80
2022-11-03T02:08:00.392Z,8.80
2022-11-03T02:10:27.233Z,8.90
2022-11-03T02:12:54.177Z,9.00
2022-11-03T02:15:22.504Z,8.90
2022-11-03T02:17:51.864Z,8.90
2022-11-03T02:20:24.186Z,8.80
2022-11-03T02:23:29.059Z,8.80
2022-11-03T02:26:00.585Z,8.80
2022-11-03T02:28:30.033Z,8.40
2022-11-03T02:31:08.571Z,8.40
2022-11-03T02:33:45.920Z,8.30
2022-11-03T02:36:45.092Z,8.20
2022-11-03T02:40:04.888Z,8.20
2022-11-03T02:42:32.988Z,8.10
2022-11-03T02:45:02.957Z,8.30
2022-11-03T02:47:30.925Z,8.30
2022-11-03T02:49:57.908Z,8.10
2022-11-03T02:52:42.531Z,8.00
2022-11-03T02:55:36.986Z,8.00
2022-11-03T02:58:11.403Z,7.90
2022-11-03T03:01:03.573Z,7.90
2022-11-03T03:03:38.447Z,7.90
2022-11-03T03:06:12.020Z,8.00
2022-11-03T03:08:44.454Z,8.00
2022-11-03T03:11:13.408Z,8.00
2022-11-03T03:13:43.047Z,8.10
2022-11-03T03:16:20.974Z,8.20
2022-11-03T03:18:50.806Z,8.20
2022-11-03T03:21:22.940Z,8.10
2022-11-03T03:24:07.029Z,8.00
2022-11-03T03:26:40.054Z,7.90
2022-11-03T03:29:12.929Z,8.00
2022-11-03T03:31:42.762Z,8.10
2022-11-03T03:34:24.075Z,8.20
2022-11-03T03:36:59.871Z,8.10
2022-11-03T03:39:31.452Z,8.20
2022-11-03T03:42:01.053Z,8.10
2022-11-03T03:44:28.453Z,8.00
2022-11-03T03:47:25.782Z,7.90
2022-11-03T03:49:52.600Z,7.90
2022-11-03T03:52:20.075Z,7.90
2022-11-03T03:54:46.829Z,8.00
2022-11-03T03:57:19.695Z,7.90
2022-11-03T03:59:46.720Z,8.00
2022-11-03T04:02:13.842Z,8.00
2022-11-03T04:04:40.976Z,7.90
2022-11-03T04:07:26.624Z,7.80
2022-11-03T04:09:53.306Z,7.90
2022-11-03T04:12:38.289Z,8.00
2022-11-03T04:15:23.776Z,7.90
2022-11-03T04:18:09.779Z,8.00
2022-11-03T04:20:55.562Z,7.90
2022-11-03T04:23:22.262Z,7.80
2022-11-03T04:25:51.873Z,7.80
2022-11-03T04:28:18.592Z,7.80
2022-11-03T04:30:45.510Z,7.70
2022-11-03T04:33:18.117Z,7.80
2022-11-03T04:35:46.159Z,7.70
2022-11-03T04:38:15.892Z,7.60
2022-11-03T04:40:57.061Z,7.40
2022-11-03T04:43:32.669Z,7.50
2022-11-03T04:45:59.424Z,7.50
2022-11-03T04:48:28.748Z,7.40
2022-11-03T04:50:59.076Z,7.40
2022-11-03T04:53:30.452Z,7.40
2022-11-03T04:55:57.151Z,7.40
2022-11-03T04:58:31.993Z,7.40
2022-11-03T05:01:00.698Z,7.50
2022-11-03T05:03:32.166Z,7.40
2022-11-03T05:06:01.737Z,7.40
2022-11-03T05:08:28.474Z,7.40
2022-11-03T05:10:56.388Z,7.30
2022-11-03T05:13:25.410Z,7.30
2022-11-03T05:15:54.654Z,7.20
2022-11-03T05:18:32.322Z,7.30
2022-11-03T05:21:07.840Z,7.30
2022-11-03T05:23:45.011Z,7.20
2022-11-03T05:26:25.646Z,7.20
2022-11-03T05:29:26.537Z,7.20
2022-11-03T05:31:55.752Z,7.40
2022-11-03T05:34:41.152Z,7.30
2022-11-03T05:37:07.793Z,7.30
2022-11-03T05:39:40.605Z,7.20
2022-11-03T05:42:23.937Z,7.20
2022-11-03T05:44:51.842Z,7.30
2022-11-03T05:47:31.272Z,7.30
2022-11-03T05:50:07.183Z,7.30
2022-11-03T05:52:33.888Z,7.50
2022-11-03T05:55:02.208Z,7.40
2022-11-03T05:57:31.065Z,7.40
2022-11-03T05:59:57.981Z,7.20
2022-11-03T06:02:42.622Z,7.10
2022-11-03T06:05:28.309Z,7.10
2022-11-03T06:07:57.621Z,7.10
2022-11-03T06:10:31.101Z,7.10
2022-11-03T06:13:06.326Z,7.10
2022-11-03T06:15:35.387Z,7.10
2022-11-03T06:18:21.684Z,7.20
2022-11-03T06:20:56.707Z,7.30
2022-11-03T06:23:25.271Z,7.20
2022-11-03T06:25:55.782Z,7.30
2022-11-03T06:28:30.286Z,7.40
2022-11-03T06:30:57.573Z,7.50
2022-11-03T06:33:33.864Z,7.60
2022-11-03T06:36:13.457Z,7.60
2022-11-03T06:38:40.256Z,7.70
2022-11-03T06:41:25.360Z,7.70
2022-11-03T06:43:52.607Z,7.70
2022-11-03T06:46:24.880Z,7.60
2022-11-03T06:48:53.626Z,7.50
2022-11-03T06:51:25.969Z,7.50
2022-11-03T06:53:54.499Z,7.50
2022-11-03T06:56:31.466Z,7.40
2022-11-03T06:58:58.491Z,7.50
2022-11-03T07:01:30.594Z,7.60
2022-11-03T07:04:03.175Z,7.70
2022-11-03T07:06:34.396Z,7.70
2022-11-03T07:09:04.878Z,7.90
2022-11-03T07:11:39.271Z,8.00
2022-11-03T07:14:19.607Z,8.00
2022-11-03T07:16:56.419Z,8.00
2022-11-03T07:19:27.309Z,8.00
2022-11-03T07:22:00.246Z,8.00
2022-11-03T07:24:26.996Z,8.00
2022-11-03T07:27:15.253Z,8.00
2022-11-03T07:29:43.419Z,8.10
2022-11-03T07:32:16.707Z,8.00
2022-11-03T07:34:43.452Z,8.10
2022-11-03T07:37:20.195Z,8.10
2022-11-03T07:39:47.350Z,8.20
2022-11-03T07:42:18.378Z,8.30
2022-11-03T07:44:45.254Z,8.30
2022-11-03T07:47:21.903Z,8.40
2022-11-03T07:49:48.811Z,8.50
2022-11-03T07:52:20.069Z,8.60
2022-11-03T07:54:46.990Z,8.60
2022-11-03T07:57:26.258Z,8.70
2022-11-03T07:59:56.773Z,8.80
2022-11-03T08:02:48.743Z,8.90
2022-11-03T08:05:15.527Z,9.10
2022-11-03T08:07:42.267Z,9.10
2022-11-03T08:10:09.577Z,9.10
2022-11-03T08:12:36.302Z,9.20
2022-11-03T08:15:03.103Z,9.30
2022-11-03T08:17:29.752Z,9.30
2022-11-03T08:19:56.706Z,9.30
2022-11-03T08:22:25.914Z,9.30
2022-11-03T08:24:53.294Z,9.40
2022-11-03T08:27:20.003Z,9.30
2022-11-03T08:29:47.038Z,9.30
2022-11-03T08:32:13.673Z,9.40
2022-11-03T08:34:40.374Z,9.40
2022-11-03T08:37:07.091Z,9.40
2022-11-03T08:39:36.024Z,9.40
2022-11-03T08:42:02.699Z,9.50
2022-11-03T08:44:29.405Z,9.50
2022-11-03T08:46:56.090Z,9.50
2022-11-03T08:49:22.912Z,9.60
2022-11-03T08:51:49.610Z,9.70
2022-11-03T08:54:16.206Z,9.70
2022-11-03T08:56:44.486Z,9.80
2022-11-03T08:59:11.227Z,9.80
2022-11-03T09:01:37.928Z,9.90
2022-11-03T09:04:04.956Z,9.90
2022-11-03T09:06:31.965Z,9.90
2022-11-03T09:11:45.291Z,10.10
2022-11-03T09:14:12.026Z,10.10
2022-11-03T09:16:38.649Z,10.10
2022-11-03T09:19:05.327Z,10.20
2022-11-03T09:21:31.969Z,10.20
2022-11-03T09:24:00.037Z,10.30
2022-11-03T09:26:27.192Z,10.30
2022-11-03T09:28:54.028Z,10.40
2022-11-03T09:31:20.721Z,10.40
2022-11-03T09:33:47.367Z,10.50
2022-11-03T09:36:14.137Z,10.70
2022-11-03T09:38:40.812Z,10.70
2022-11-03T09:41:18.642Z,10.80
2022-11-03T09:43:56.471Z,10.80
2022-11-03T09:46:23.383Z,10.90
2022-11-03T09:48:50.210Z,10.90
2022-11-03T09:51:22.204Z,10.90
2022-11-03T09:53:49.084Z,10.90
2022-11-03T09:56:21.751Z,10.90
2022-11-03T09:58:53.009Z,10.90
2022-11-03T10:01:21.264Z,10.90
2022-11-03T10:03:48.126Z,11.00
2022-11-03T10:06:17.091Z,11.10
2022-11-03T10:08:46.401Z,11.10
2022-11-03T10:11:13.533Z,11.20
2022-11-03T10:13:43.567Z,11.20
2022-11-03T10:16:14.818Z,11.20
2022-11-03T10:18:41.667Z,11.20
2022-11-03T10:21:47.057Z,11.20
2022-11-03T10:24:14.682Z,11.30
2022-11-03T10:26:52.481Z,11.30
2022-11-03T10:29:24.618Z,11.30
2022-11-03T10:31:54.050Z,11.40
2022-11-03T10:34:26.201Z,11.40
2022-11-03T10:37:12.517Z,11.50
2022-11-03T10:39:39.486Z,11.60
2022-11-03T10:42:06.262Z,11.60
2022-11-03T10:44:32.950Z,11.60
2022-11-03T10:47:05.437Z,11.60
2022-11-03T10:49:39.196Z,11.70
2022-11-03T10:52:24.422Z,11.70
2022-11-03T10:55:00.977Z,11.70
2022-11-03T10:57:28.536Z,11.80
2022-11-03T10:59:58.320Z,11.80
2022-11-03T11:02:31.185Z,11.80
2022-11-03T11:05:01.313Z,11.80
2022-11-03T11:07:38.590Z,11.80
2022-11-03T11:10:19.500Z,11.90
2022-11-03T11:13:18.693Z,11.90
2022-11-03T11:15:51.326Z,12.00
2022-11-03T11:18:30.143Z,11.90
2022-11-03T11:21:14.985Z,12.00
2022-11-03T11:23:41.711Z,12.00
2022-11-03T11:26:11.415Z,12.00
2022-11-03T11:28:46.518Z,12.00
2022-11-03T11:31:32.951Z,12.00
2022-11-03T11:34:14.145Z,11.90
2022-11-03T11:36:46.003Z,11.90
2022-11-03T11:39:33.903Z,11.90
2022-11-03T11:42:14.977Z,11.90
2022-11-03T11:44:52.837Z,11.90
2022-11-03T11:47:32.180Z,11.90
2022-11-03T11:50:09.617Z,12.00
2022-11-03T11:52:47.227Z,12.00
2022-11-03T11:55:31.190Z,12.00
2022-11-03T11:58:00.332Z,12.00
2022-11-03T12:00:30.923Z,12.10
2022-11-03T12:02:59.699Z,12.10
2022-11-03T12:05:32.697Z,12.10
2022-11-03T12:08:00.418Z,12.10
2022-11-03T12:10:32.482Z,12.10
2022-11-03T12:13:00.809Z,12.10
2022-11-03T12:15:50.667Z,12.10
2022-11-03T12:18:43.594Z,12.10
2022-11-03T12:21:33.696Z,12.20
2022-11-03T12:24:00.575Z,12.20
2022-11-03T12:26:27.151Z,12.20
2022-11-03T12:28:55.057Z,12.20
2022-11-03T12:31:22.001Z,12.20
2022-11-03T12:33:48.688Z,12.20
2022-11-03T12:36:15.388Z,12.20
2022-11-03T12:38:42.737Z,12.20
2022-11-03T12:41:21.374Z,12.20
2022-11-03T12:43:49.805Z,12.20
2022-11-03T12:46:17.898Z,12.20
2022-11-03T12:48:45.380Z,12.20
2022-11-03T12:51:13.348Z,12.20
2022-11-03T12:53:40.999Z,12.20
2022-11-03T12:56:08.891Z,12.20
2022-11-03T12:58:36.366Z,12.20
2022-11-03T13:01:03.660Z,12.30
2022-11-03T13:03:31.840Z,12.30
2022-11-03T13:05:59.512Z,12.30
2022-11-03T13:08:26.498Z,12.40
2022-11-03T13:10:53.412Z,12.40
2022-11-03T13:13:20.373Z,12.40
2022-11-03T13:15:47.384Z,12.30
2022-11-03T13:18:14.537Z,12.30
2022-11-03T13:20:41.396Z,12.30
2022-11-03T13:23:08.484Z,12.30
2022-11-03T13:25:35.545Z,12.40
2022-11-03T13:28:03.916Z,12.30
2022-11-03T13:30:31.539Z,12.30
2022-11-03T13:32:58.217Z,12.30
2022-11-03T13:35:25.000Z,12.30
2022-11-03T13:37:51.864Z,12.30
2022-11-03T13:40:50.353Z,12.30
2022-11-03T13:43:06.180Z,12.30
2022-11-03T13:45:33.010Z,12.30
2022-11-03T13:50:46.796Z,12.30
2022-11-03T13:56:05.778Z,12.30
2022-11-03T14:01:22.277Z,12.30
2022-11-03T14:06:35.909Z,12.30
2022-11-03T14:09:02.738Z,12.20
2022-11-03T14:11:47.865Z,12.20
2022-11-03T14:14:14.524Z,12.20
2022-11-03T14:16:41.217Z,12.20
2022-11-03T14:19:08.120Z,12.20
2022-11-03T14:21:37.257Z,12.20
2022-11-03T14:24:05.955Z,12.20
2022-11-03T14:26:42.155Z,12.20
2022-11-03T14:29:10.684Z,12.20
2022-11-03T14:31:37.362Z,12.20
2022-11-03T14:34:04.080Z,12.20
2022-11-03T14:36:30.859Z,12.20
2022-11-03T14:38:57.521Z,12.20
2022-11-03T14:41:43.009Z,12.20
2022-11-03T14:44:09.719Z,12.20
2022-11-03T14:46:36.426Z,12.20
2022-11-03T14:49:03.575Z,12.20
2022-11-03T14:51:30.641Z,12.10
2022-11-03T14:53:58.337Z,12.00
2022-11-03T14:56:25.366Z,12.00
2022-11-03T14:58:52.150Z,12.00
2022-11-03T15:01:19.873Z,12.00
2022-11-03T15:03:47.007Z,12.00
2022-11-03T15:06:14.109Z,11.90
2022-11-03T15:08:40.977Z,11.90
2022-11-03T15:11:09.831Z,11.90
2022-11-03T15:13:41.678Z,11.90
2022-11-03T15:16:12.577Z,11.90
2022-11-03T15:18:39.212Z,11.80
2022-11-03T15:21:06.195Z,11.80
2022-11-03T15:26:19.562Z,11.80
2022-11-03T15:28:46.446Z,11.70
2022-11-03T15:31:13.355Z,11.70
2022-11-03T15:33:40.135Z,11.70
2022-11-03T15:36:08.316Z,11.70
2022-11-03T15:38:35.335Z,11.70
2022-11-03T15:41:17.387Z,11.70
2022-11-03T15:43:48.952Z,11.70
2022-11-03T15:46:17.305Z,11.70
2022-11-03T15:48:44.216Z,11.60
2022-11-03T15:51:12.187Z,11.60
2022-11-03T15:53:39.698Z,11.60
2022-11-03T15:56:07.025Z,11.60
2022-11-03T15:58:34.651Z,11.60
2022-11-03T16:01:05.084Z,11.70
2022-11-03T16:03:32.469Z,11.70
2022-11-03T16:05:59.842Z,11.60
2022-11-03T16:08:26.512Z,11.50
2022-11-03T16:10:57.551Z,11.50
2022-11-03T16:13:25.198Z,11.50
2022-11-03T16:15:54.435Z,11.50
2022-11-03T16:18:21.593Z,11.40
2022-11-03T16:20:48.512Z,11.50
2022-11-03T16:23:15.792Z,11.50
2022-11-03T16:25:42.531Z,11.50
2022-11-03T16:28:09.763Z,11.40
2022-11-03T16:30:38.653Z,11.40
2022-11-03T16:33:06.032Z,11.50
2022-11-03T16:35:33.008Z,11.50
2022-11-03T16:37:59.987Z,11.50
2022-11-03T16:40:27.016Z,11.50
2022-11-03T16:42:54.078Z,11.60
2022-11-03T16:45:23.501Z,11.60
2022-11-03T16:47:50.865Z,11.50
2022-11-03T16:50:18.832Z,11.60
2022-11-03T16:52:49.353Z,11.60
2022-11-03T16:55:17.098Z,11.60
2022-11-03T16:57:44.545Z,11.60
2022-11-03T17:00:16.878Z,11.60
2022-11-03T17:02:44.351Z,11.50
2022-11-03T17:05:11.632Z,11.50
2022-11-03T17:07:38.452Z,11.50
2022-11-03T17:10:07.222Z,11.40
2022-11-03T17:12:33.955Z,11.30
2022-11-03T17:15:00.970Z,11.40
2022-11-03T17:17:27.733Z,11.50
2022-11-03T17:19:54.521Z,11.50
2022-11-03T17:22:22.303Z,11.50
2022-11-03T17:24:49.562Z,11.60
2022-11-03T17:27:22.335Z,11.50
2022-11-03T17:29:59.166Z,11.60
2022-11-03T17:32:38.864Z,11.60
2022-11-03T17:35:25.600Z,11.60
2022-11-03T17:37:53.210Z,11.60
2022-11-03T17:40:27.542Z,11.60
2022-11-03T17:42:54.424Z,11.60
2022-11-03T17:45:22.982Z,11.60
2022-11-03T17:47:50.974Z,11.60
2022-11-03T17:50:19.975Z,11.60
2022-11-03T17:52:48.375Z,11.60
2022-11-03T17:55:26.993Z,11.60
2022-11-03T17:57:55.849Z,11.50
2022-11-03T18:00:23.527Z,11.50
2022-11-03T18:02:51.611Z,11.50
2022-11-03T18:05:31.451Z,11.60
2022-11-03T18:08:00.278Z,11.60
2022-11-03T18:10:29.713Z,11.60
2022-11-03T18:13:18.504Z,11.50
2022-11-03T18:16:06.517Z,11.50
2022-11-03T18:18:36.141Z,11.50
2022-11-03T18:21:03.041Z,11.50
2022-11-03T18:23:32.225Z,11.50
2022-11-03T18:26:03.371Z,11.60
2022-11-03T18:28:30.005Z,11.60
2022-11-03T18:30:57.233Z,11.60
2022-11-03T18:33:34.078Z,11.60
2022-11-03T18:36:06.229Z,11.60
2022-11-03T18:38:36.418Z,11.60
2022-11-03T18:41:23.280Z,11.60
2022-11-03T18:43:49.971Z,11.70
2022-11-03T18:46:16.649Z,11.70
2022-11-03T18:48:43.550Z,11.80
2022-11-03T18:51:10.745Z,11.70
2022-11-03T18:53:37.439Z,11.70
2022-11-03T18:56:04.278Z,11.80
2022-11-03T18:58:33.621Z,11.70
2022-11-03T19:01:00.369Z,11.80
2022-11-03T19:03:28.076Z,11.70
2022-11-03T19:05:54.841Z,11.80
2022-11-03T19:08:28.399Z,11.70
2022-11-03T19:10:56.230Z,11.70
2022-11-03T19:13:28.742Z,11.70
2022-11-03T19:16:00.129Z,11.80
2022-11-03T19:18:28.582Z,11.80
2022-11-03T19:20:55.336Z,11.80
2022-11-03T19:23:22.048Z,11.90
2022-11-03T19:25:50.481Z,11.80
2022-11-03T19:28:21.185Z,11.80
2022-11-03T19:30:48.548Z,11.80
2022-11-03T19:33:22.312Z,11.80
2022-11-03T19:35:49.534Z,11.80
2022-11-03T19:38:18.765Z,11.90
2022-11-03T19:41:04.358Z,11.80
2022-11-03T19:43:34.810Z,11.90
2022-11-03T19:46:02.077Z,11.90
2022-11-03T19:48:31.910Z,11.80
2022-11-03T19:50:58.909Z,11.80
2022-11-03T19:53:28.882Z,11.90
2022-11-03T19:55:56.398Z,11.80
2022-11-03T19:58:27.833Z,11.90
2022-11-03T20:00:54.957Z,11.90
2022-11-03T20:03:22.441Z,11.80
2022-11-03T20:05:52.282Z,11.80
2022-11-03T20:08:22.044Z,11.80
2022-11-03T20:10:48.970Z,11.80
2022-11-03T20:13:19.065Z,11.70
2022-11-03T20:15:46.778Z,11.70
2022-11-03T20:18:14.298Z,11.60
2022-11-03T20:20:42.999Z,11.60
2022-11-03T20:23:24.392Z,11.50
2022-11-03T20:25:51.754Z,11.40
2022-11-03T20:28:21.491Z,11.30
2022-11-03T20:30:49.160Z,11.30
2022-11-03T20:33:20.913Z,11.30
2022-11-03T20:35:48.637Z,11.40
2022-11-03T20:38:20.598Z,11.40
2022-11-03T20:40:49.389Z,11.40
2022-11-03T20:43:30.398Z,11.50
2022-11-03T20:45:57.908Z,11.40
2022-11-03T20:48:24.854Z,11.50
2022-11-03T20:50:52.233Z,11.40
2022-11-03T20:53:21.463Z,11.40
2022-11-03T20:55:49.030Z,11.40
2022-11-03T20:58:18.063Z,11.40
2022-11-03T21:00:46.195Z,11.40
2022-11-03T21:03:31.353Z,11.40
2022-11-03T21:06:04.132Z,11.30
2022-11-03T21:08:30.858Z,11.30
2022-11-03T21:11:17.433Z,11.30
2022-11-03T21:13:44.143Z,11.40
2022-11-03T21:16:31.228Z,11.30
2022-11-03T21:19:16.638Z,11.30
2022-11-03T21:21:43.258Z,11.30
2022-11-03T21:24:11.945Z,11.30
2022-11-03T21:26:40.121Z,11.30
2022-11-03T21:29:07.075Z,11.40
2022-11-03T21:31:33.933Z,11.40
2022-11-03T21:34:00.637Z,11.40
2022-11-03T21:36:27.372Z,11.40
2022-11-03T21:38:54.076Z,11.40
2022-11-03T21:41:39.277Z,11.50
2022-11-03T21:44:14.935Z,11.40
2022-11-03T21:46:42.776Z,11.50
2022-11-03T21:49:29.128Z,11.40
2022-11-03T21:51:55.874Z,11.50
2022-11-03T21:54:22.610Z,11.50
2022-11-03T21:56:49.385Z,11.50
2022-11-03T21:59:16.167Z,11.50
2022-11-03T22:01:42.903Z,11.50
2022-11-03T22:04:09.854Z,11.50
2022-11-03T22:06:36.621Z,11.50
2022-11-03T22:09:03.638Z,11.50
2022-11-03T22:11:30.348Z,11.50
2022-11-03T22:13:59.116Z,11.50
2022-11-03T22:16:39.863Z,11.50
2022-11-03T22:19:30.263Z,11.50
2022-11-03T22:22:16.293Z,11.50
2022-11-03T22:25:01.814Z,11.50
2022-11-03T22:27:30.357Z,11.50
2022-11-03T22:30:15.467Z,11.40
2022-11-03T22:32:42.596Z,11.40
2022-11-03T22:35:29.880Z,11.40
2022-11-03T22:38:14.323Z,11.40
2022-11-03T22:41:01.347Z,11.50
2022-11-03T22:43:47.093Z,11.50
2022-11-03T22:46:15.296Z,11.40
2022-11-03T22:48:42.034Z,11.50
2022-11-03T22:51:14.584Z,11.50
2022-11-03T22:54:01.377Z,11.40
2022-11-03T22:56:29.769Z,11.40
2022-11-03T22:58:57.039Z,11.40
2022-11-03T23:01:26.889Z,11.30
2022-11-03T23:03:53.901Z,11.30
2022-11-03T23:06:22.837Z,11.30
2022-11-03T23:08:50.775Z,11.30
2022-11-03T23:11:19.530Z,11.30
2022-11-03T23:13:58.227Z,11.30
2022-11-03T23:16:27.431Z,11.30
2022-11-03T23:19:13.063Z,11.30
2022-11-03T23:21:40.344Z,11.30
2022-11-03T23:24:25.520Z,11.30
2022-11-03T23:26:52.301Z,11.30
2022-11-03T23:29:19.160Z,11.30
2022-11-03T23:31:46.386Z,11.30
2022-11-03T23:34:13.804Z,11.30
2022-11-03T23:36:40.525Z,11.20
2022-11-03T23:39:07.769Z,11.20
2022-11-03T23:41:34.486Z,11.20
2022-11-03T23:44:01.129Z,11.20
2022-11-03T23:46:47.638Z,11.20
2022-11-03T23:49:14.942Z,11.20
2022-11-03T23:51:42.181Z,11.20
2022-11-03T23:54:10.538Z,11.20
2022-11-03T23:57:01.403Z,11.20
2022-11-03T23:59:29.654Z,11.10
